Time;durP1;ratioP1;P1;durP2;ratioP2;P2;SDS_P1;SDS_P2;PMS_P1;PMS_P2;Temp;Humidity;BMP_temperature;BMP_pressure;BME280_temperature;BME280_humidity;BME280_pressure;Samples;Min_cycle;Max_cycle;Signal;HPM_P1;HPM_P2
2022/04/04 00:03:39;;;;;;;2.75;1.95;;;;;;;;;;10300648;28;20038;-63
2022/04/04 00:08:40;;;;;;;5.40;1.77;;;;;;;;;;10321244;28;20035;-64
2022/04/04 00:13:41;;;;;;;3.38;1.98;;;;;;;;;;10289233;28;20034;-64
2022/04/04 00:18:41;;;;;;;6.47;2.03;;;;;;;;;;10302353;28;20114;-65
2022/04/04 00:23:42;;;;;;;3.22;1.70;;;;;;;;;;10315414;28;20033;-63
2022/04/04 00:28:43;;;;;;;4.43;1.70;;;;;;;;;;10279238;28;20427;-63
2022/04/04 00:33:43;;;;;;;2.58;1.90;;;;;;;;;;10281414;28;20053;-63
2022/04/04 00:38:44;;;;;;;6.78;1.95;;;;;;;;;;10290967;28;20066;-63
2022/04/04 00:43:45;;;;;;;3.28;1.92;;;;;;;;;;10310648;28;20509;-66
2022/04/04 00:48:46;;;;;;;8.07;1.92;;;;;;;;;;10312424;28;20629;-65
2022/04/04 00:53:47;;;;;;;4.32;2.20;;;;;;;;;;10299342;28;20042;-65
2022/04/04 00:58:48;;;;;;;2.10;1.80;;;;;;;;;;10326812;28;20046;-65
2022/04/04 01:03:49;;;;;;;3.67;1.90;;;;;;;;;;10320031;28;20038;-69
2022/04/04 01:08:49;;;;;;;2.40;1.80;;;;;;;;;;10330043;28;20470;-67
2022/04/04 01:13:50;;;;;;;2.42;1.80;;;;;;;;;;10325268;28;20030;-68
2022/04/04 01:18:51;;;;;;;2.22;1.60;;;;;;;;;;10291853;28;20478;-65
2022/04/04 01:23:55;;;;;;;2.38;1.63;;;;;;;;;;10315819;28;20621;-63
2022/04/04 01:28:55;;;;;;;3.65;1.80;;;;;;;;;;10324812;28;20377;-64
2022/04/04 01:33:56;;;;;;;2.78;1.70;;;;;;;;;;10317755;28;20039;-66
2022/04/04 01:38:57;;;;;;;1.88;1.65;;;;;;;;;;10322903;28;20076;-66
2022/04/04 01:43:57;;;;;;;3.22;1.65;;;;;;;;;;10315112;28;20031;-65
2022/04/04 01:49:01;;;;;;;3.85;1.80;;;;;;;;;;10292104;28;20055;-65
2022/04/04 01:54:02;;;;;;;4.00;2.00;;;;;;;;;;10321493;28;20562;-65
2022/04/04 01:59:02;;;;;;;2.33;1.38;;;;;;;;;;10318916;28;20054;-64
2022/04/04 02:04:03;;;;;;;1.70;1.60;;;;;;;;;;10321018;28;20030;-65
2022/04/04 02:09:04;;;;;;;3.67;1.75;;;;;;;;;;10297929;28;20035;-65
2022/04/04 02:14:04;;;;;;;2.28;1.70;;;;;;;;;;10314506;28;20113;-64
2022/04/04 02:19:05;;;;;;;1.73;1.63;;;;;;;;;;10328580;28;20034;-66
2022/04/04 02:24:06;;;;;;;2.10;1.55;;;;;;;;;;10316846;28;20083;-64
2022/04/04 02:29:06;;;;;;;2.35;1.50;;;;;;;;;;10317281;28;20045;-64
2022/04/04 02:34:07;;;;;;;2.20;1.60;;;;;;;;;;10299250;28;20026;-65
2022/04/04 02:39:08;;;;;;;2.03;1.52;;;;;;;;;;10298648;28;20035;-63
2022/04/04 02:44:08;;;;;;;2.83;1.65;;;;;;;;;;10285691;28;20120;-65
2022/04/04 02:49:09;;;;;;;2.38;1.50;;;;;;;;;;10300271;28;20046;-65
2022/04/04 02:54:09;;;;;;;1.48;1.35;;;;;;;;;;10290231;28;20031;-65
2022/04/04 02:59:10;;;;;;;2.53;1.60;;;;;;;;;;10288714;28;20245;-64
2022/04/04 03:04:11;;;;;;;1.67;1.58;;;;;;;;;;10318758;28;20065;-65
2022/04/04 03:09:11;;;;;;;2.65;1.52;;;;;;;;;;10305573;28;20031;-63
2022/04/04 03:14:12;;;;;;;1.90;1.50;;;;;;;;;;10306759;28;20031;-63
2022/04/04 03:19:13;;;;;;;2.75;1.40;;;;;;;;;;10286620;28;20035;-64
2022/04/04 03:24:14;;;;;;;3.20;1.60;;;;;;;;;;10325088;28;20030;-64
2022/04/04 03:29:14;;;;;;;6.28;1.40;;;;;;;;;;10323789;28;20034;-65
2022/04/04 03:34:15;;;;;;;1.70;1.60;;;;;;;;;;10308157;28;20031;-63
2022/04/04 03:39:16;;;;;;;2.25;1.58;;;;;;;;;;10321196;28;20192;-66
2022/04/04 03:44:17;;;;;;;4.57;2.03;;;;;;;;;;10322167;28;20032;-64
2022/04/04 03:49:17;;;;;;;2.72;1.75;;;;;;;;;;10286999;28;20031;-67
2022/04/04 03:54:18;;;;;;;1.58;1.35;;;;;;;;;;10288119;28;20031;-63
2022/04/04 03:59:19;;;;;;;2.78;1.60;;;;;;;;;;10320277;28;20046;-64
2022/04/04 04:04:20;;;;;;;2.53;1.80;;;;;;;;;;10323809;28;20038;-62
2022/04/04 04:09:20;;;;;;;2.10;1.58;;;;;;;;;;10317913;28;20038;-63
2022/04/04 04:14:21;;;;;;;2.38;1.38;;;;;;;;;;10305006;28;20042;-64
2022/04/04 04:24:41;;;;;;;1.63;1.42;;;;;;;;;;10315411;28;20122;-63
2022/04/04 04:29:42;;;;;;;1.88;1.65;;;;;;;;;;10322815;28;20049;-64
2022/04/04 04:34:46;;;;;;;1.77;1.67;;;;;;;;;;10300726;28;20043;-63
2022/04/04 04:39:48;;;;;;;2.40;1.58;;;;;;;;;;10301321;28;20037;-65
2022/04/04 04:44:48;;;;;;;1.83;1.30;;;;;;;;;;10318931;28;20026;-66
2022/04/04 04:49:49;;;;;;;4.82;1.45;;;;;;;;;;10291206;28;20483;-65
2022/04/04 04:54:49;;;;;;;1.75;1.42;;;;;;;;;;10283703;28;20031;-67
2022/04/04 04:59:50;;;;;;;1.83;1.60;;;;;;;;;;10326275;28;20112;-66
2022/04/04 05:04:51;;;;;;;2.50;1.60;;;;;;;;;;10289140;28;20368;-65
2022/04/04 05:09:51;;;;;;;5.90;1.65;;;;;;;;;;10304160;28;20198;-66
2022/04/04 05:14:52;;;;;;;2.28;1.40;;;;;;;;;;10265987;28;20111;-66
2022/04/04 05:19:53;;;;;;;2.15;1.70;;;;;;;;;;10255641;28;20039;-62
2022/04/04 05:24:53;;;;;;;22.55;2.28;;;;;;;;;;10259826;28;20100;-68
2022/04/04 05:29:54;;;;;;;5.30;2.05;;;;;;;;;;10264313;28;20039;-60
2022/04/04 05:34:55;;;;;;;5.65;1.80;;;;;;;;;;10264868;28;20035;-60
2022/04/04 05:39:55;;;;;;;9.88;1.83;;;;;;;;;;10298325;28;20026;-60
2022/04/04 05:44:56;;;;;;;7.13;1.92;;;;;;;;;;10294473;28;20030;-60
2022/04/04 05:49:57;;;;;;;6.65;1.70;;;;;;;;;;10286033;28;20027;-60
2022/04/04 05:54:58;;;;;;;2.80;2.03;;;;;;;;;;10266880;28;20027;-60
2022/04/04 05:59:58;;;;;;;2.97;1.88;;;;;;;;;;10282474;28;20044;-65
2022/04/04 06:04:59;;;;;;;10.25;2.65;;;;;;;;;;10277339;28;20061;-66
2022/04/04 06:10:00;;;;;;;4.35;2.10;;;;;;;;;;10260833;28;20024;-65
2022/04/04 06:15:01;;;;;;;4.05;1.90;;;;;;;;;;10264508;28;20023;-64
2022/04/04 06:20:03;;;;;;;10.60;2.50;;;;;;;;;;10253484;28;20062;-68
2022/04/04 06:25:07;;;;;;;6.82;2.25;;;;;;;;;;10270998;28;20135;-68
2022/04/04 06:30:09;;;;;;;18.20;3.25;;;;;;;;;;10249349;28;20039;-68
2022/04/04 06:35:12;;;;;;;13.00;2.75;;;;;;;;;;10282462;28;20030;-68
2022/04/04 06:40:14;;;;;;;12.10;3.72;;;;;;;;;;10290082;28;20073;-66
2022/04/04 06:45:17;;;;;;;10.75;2.67;;;;;;;;;;10289862;28;20037;-66
2022/04/04 06:50:18;;;;;;;9.15;2.47;;;;;;;;;;10289879;28;20027;-67
2022/04/04 06:55:19;;;;;;;12.02;3.28;;;;;;;;;;10288261;28;20030;-67
2022/04/04 07:00:21;;;;;;;6.97;2.55;;;;;;;;;;10289526;28;20050;-68
2022/04/04 07:05:22;;;;;;;13.52;2.65;;;;;;;;;;10289051;28;20246;-67
2022/04/04 07:10:22;;;;;;;9.55;2.55;;;;;;;;;;10289414;28;20035;-68
2022/04/04 07:15:23;;;;;;;9.35;2.30;;;;;;;;;;10288648;28;20109;-67
2022/04/04 07:20:24;;;;;;;9.23;3.05;;;;;;;;;;10288688;28;20147;-68
2022/04/04 07:25:24;;;;;;;9.50;2.80;;;;;;;;;;10288207;28;20094;-68
2022/04/04 07:30:26;;;;;;;6.38;2.55;;;;;;;;;;10288822;28;20046;-68
2022/04/04 07:35:27;;;;;;;5.10;2.53;;;;;;;;;;10287933;28;20037;-67
2022/04/04 07:40:28;;;;;;;5.25;2.40;;;;;;;;;;10288055;28;20556;-68
2022/04/04 07:45:30;;;;;;;9.52;2.40;;;;;;;;;;10287650;28;20325;-68
2022/04/04 07:50:31;;;;;;;7.95;2.50;;;;;;;;;;10287759;28;20026;-67
2022/04/04 07:55:32;;;;;;;5.00;2.20;;;;;;;;;;10281828;28;20035;-68
2022/04/04 08:00:32;;;;;;;5.80;2.35;;;;;;;;;;10258250;28;20035;-68
2022/04/04 08:05:33;;;;;;;4.90;2.00;;;;;;;;;;10286512;28;20069;-68
2022/04/04 08:10:33;;;;;;;5.10;2.20;;;;;;;;;;10287118;28;20030;-68
2022/04/04 08:15:34;;;;;;;6.38;2.33;;;;;;;;;;10286631;28;20630;-68
2022/04/04 08:20:35;;;;;;;6.22;2.38;;;;;;;;;;10286269;28;20486;-68
2022/04/04 08:25:35;;;;;;;8.23;2.80;;;;;;;;;;10286721;28;20022;-68
2022/04/04 08:30:36;;;;;;;3.22;1.92;;;;;;;;;;10286461;28;20432;-69
2022/04/04 08:35:37;;;;;;;3.17;2.00;;;;;;;;;;10286497;28;20034;-68
2022/04/04 08:40:38;;;;;;;3.70;2.22;;;;;;;;;;10286308;28;20041;-68
2022/04/04 08:45:42;;;;;;;6.60;2.45;;;;;;;;;;10286275;28;20122;-68
2022/04/04 08:50:43;;;;;;;3.85;2.13;;;;;;;;;;10285984;28;20031;-68
2022/04/04 08:55:44;;;;;;;3.75;2.13;;;;;;;;;;10285857;28;20074;-69
2022/04/04 09:00:44;;;;;;;5.25;2.42;;;;;;;;;;10285931;28;20030;-69
2022/04/04 09:05:57;;;;;;;4.45;2.20;;;;;;;;;;10286036;28;20027;-69
2022/04/04 09:11:00;;;;;;;2.53;2.15;;;;;;;;;;10285679;28;20328;-69
2022/04/04 09:16:06;;;;;;;5.85;2.58;;;;;;;;;;10285803;28;20030;-68
2022/04/04 09:21:09;;;;;;;3.28;2.08;;;;;;;;;;10292702;28;20062;-68
2022/04/04 09:26:29;;;;;;;4.72;2.38;;;;;;;;;;10291693;28;20031;-68
2022/04/04 09:31:29;;;;;;;6.60;2.15;;;;;;;;;;10293280;28;20023;-68
2022/04/04 09:36:32;;;;;;;2.63;2.13;;;;;;;;;;10292475;28;20030;-69
2022/04/04 09:41:32;;;;;;;3.85;2.20;;;;;;;;;;10292718;28;20034;-69
2022/04/04 09:46:55;;;;;;;3.75;2.30;;;;;;;;;;10292510;28;20042;-69
2022/04/04 09:51:58;;;;;;;2.53;2.08;;;;;;;;;;10246099;29;20522;-68
2022/04/04 09:57:28;;;;;;;9.00;2.78;;;;;;;;;;10245519;29;20075;-69
2022/04/04 10:02:29;;;;;;;6.93;2.38;;;;;;;;;;10244746;29;20046;-69
2022/04/04 10:07:30;;;;;;;5.75;2.30;;;;;;;;;;10245234;28;20050;-68
2022/04/04 10:12:35;;;;;;;3.83;2.38;;;;;;;;;;10245550;29;20046;-67
2022/04/04 10:17:37;;;;;;;3.58;2.40;;;;;;;;;;10244954;29;20035;-68
2022/04/04 10:22:38;;;;;;;3.60;2.60;;;;;;;;;;10245051;29;20403;-68
2022/04/04 10:27:39;;;;;;;4.07;2.50;;;;;;;;;;10209803;29;20094;-69
2022/04/04 10:32:54;;;;;;;4.82;2.65;;;;;;;;;;10209736;29;20114;-68
2022/04/04 10:38:03;;;;;;;3.08;2.38;;;;;;;;;;10211276;29;20448;-67
2022/04/04 10:43:07;;;;;;;3.67;2.47;;;;;;;;;;10224483;29;20036;-67
2022/04/04 10:48:09;;;;;;;3.10;2.10;;;;;;;;;;10210652;29;20031;-68
2022/04/04 10:53:10;;;;;;;3.17;2.50;;;;;;;;;;10210263;29;20043;-69
2022/04/04 10:58:13;;;;;;;5.75;2.50;;;;;;;;;;10255183;28;20399;-69
2022/04/04 11:03:14;;;;;;;2.90;2.10;;;;;;;;;;10289575;28;20123;-68
2022/04/04 11:08:15;;;;;;;4.50;2.30;;;;;;;;;;10289694;28;20046;-69
2022/04/04 11:13:16;;;;;;;2.80;2.00;;;;;;;;;;10289176;28;20031;-69
2022/04/04 11:18:16;;;;;;;3.05;2.28;;;;;;;;;;10288784;28;20394;-69
2022/04/04 11:23:20;;;;;;;2.75;2.25;;;;;;;;;;10288832;28;20034;-68
2022/04/04 11:28:25;;;;;;;4.20;2.35;;;;;;;;;;10288150;28;20034;-67
2022/04/04 11:33:28;;;;;;;2.70;2.13;;;;;;;;;;10288578;28;20046;-69
2022/04/04 11:38:38;;;;;;;3.00;1.98;;;;;;;;;;10287975;28;20049;-68
2022/04/04 11:43:40;;;;;;;2.65;1.98;;;;;;;;;;10287249;28;20114;-68
2022/04/04 11:48:51;;;;;;;2.30;2.10;;;;;;;;;;10270379;28;20509;-68
2022/04/04 11:54:07;;;;;;;3.70;2.28;;;;;;;;;;10286779;28;20677;-69
2022/04/04 11:59:09;;;;;;;5.75;2.08;;;;;;;;;;10266042;28;20472;-70
2022/04/04 12:04:09;;;;;;;4.97;2.22;;;;;;;;;;10244916;28;20102;-69
2022/04/04 12:09:13;;;;;;;3.10;1.88;;;;;;;;;;10268449;28;20041;-69
2022/04/04 12:14:13;;;;;;;2.65;1.90;;;;;;;;;;10270878;28;20428;-69
2022/04/04 12:19:14;;;;;;;2.90;2.10;;;;;;;;;;10270672;28;20031;-69
2022/04/04 12:29:43;;;;;;;10.65;2.45;;;;;;;;;;10268379;28;20475;-69
2022/04/04 12:35:02;;;;;;;2.53;2.10;;;;;;;;;;10249347;28;20027;-67
2022/04/04 12:40:25;;;;;;;5.22;2.30;;;;;;;;;;10252382;28;20062;-70
2022/04/04 12:45:31;;;;;;;6.38;2.35;;;;;;;;;;10261912;28;20034;-70
2022/04/04 12:50:43;;;;;;;3.78;2.25;;;;;;;;;;10265294;28;20122;-69
2022/04/04 12:56:11;;;;;;;8.05;1.92;;;;;;;;;;10260367;28;20035;-69
2022/04/04 13:01:17;;;;;;;5.07;2.33;;;;;;;;;;10318164;28;20047;-65
2022/04/04 13:06:18;;;;;;;4.68;2.20;;;;;;;;;;10279404;28;20482;-65
2022/04/04 13:11:18;;;;;;;2.97;1.85;;;;;;;;;;10251752;28;20438;-68
2022/04/04 13:16:33;;;;;;;3.17;2.03;;;;;;;;;;10271056;28;20031;-67
2022/04/04 13:21:45;;;;;;;2.13;1.92;;;;;;;;;;10249704;28;20574;-65
2022/04/04 13:26:48;;;;;;;3.67;2.03;;;;;;;;;;10253850;28;20086;-67
2022/04/04 13:31:48;;;;;;;5.05;1.55;;;;;;;;;;10251073;28;20479;-64
2022/04/04 13:36:49;;;;;;;3.15;2.10;;;;;;;;;;10259674;28;20042;-66
2022/04/04 13:41:50;;;;;;;5.00;1.88;;;;;;;;;;10251498;28;20039;-63
2022/04/04 13:46:50;;;;;;;2.10;1.65;;;;;;;;;;10257404;28;20027;-68
2022/04/04 13:51:51;;;;;;;1.88;1.63;;;;;;;;;;10267832;28;20449;-65
2022/04/04 13:56:52;;;;;;;2.75;1.98;;;;;;;;;;10248551;28;20499;-65
2022/04/04 14:01:52;;;;;;;4.40;1.83;;;;;;;;;;10250544;28;20039;-67
2022/04/04 14:06:53;;;;;;;1.88;1.70;;;;;;;;;;10261390;28;20058;-67
2022/04/04 14:11:54;;;;;;;2.78;1.92;;;;;;;;;;10265887;28;20495;-67
2022/04/04 14:16:55;;;;;;;5.70;2.00;;;;;;;;;;10265371;28;20062;-68
2022/04/04 14:21:56;;;;;;;7.35;2.05;;;;;;;;;;10250806;28;20035;-66
2022/04/04 14:26:56;;;;;;;3.58;1.88;;;;;;;;;;10252471;28;20479;-68
2022/04/04 14:31:57;;;;;;;5.93;1.95;;;;;;;;;;10270393;28;20030;-70
2022/04/04 14:36:58;;;;;;;6.13;2.10;;;;;;;;;;10282818;28;20023;-69
2022/04/04 14:41:59;;;;;;;3.70;1.88;;;;;;;;;;10254912;28;20071;-70
2022/04/04 14:47:00;;;;;;;3.80;1.90;;;;;;;;;;10263212;28;20027;-68
2022/04/04 14:52:00;;;;;;;3.28;1.92;;;;;;;;;;10274552;28;20023;-69
2022/04/04 14:57:02;;;;;;;5.95;2.15;;;;;;;;;;10277901;28;20062;-66
2022/04/04 15:02:03;;;;;;;3.80;1.80;;;;;;;;;;10260037;28;20066;-69
2022/04/04 15:07:04;;;;;;;4.05;2.10;;;;;;;;;;10289250;28;20238;-68
2022/04/04 15:12:08;;;;;;;3.33;1.67;;;;;;;;;;10278737;28;20047;-67
2022/04/04 15:17:08;;;;;;;3.80;2.10;;;;;;;;;;10286609;28;20115;-70
2022/04/04 15:22:09;;;;;;;3.10;1.75;;;;;;;;;;10284906;28;20049;-68
2022/04/04 15:27:10;;;;;;;5.97;1.92;;;;;;;;;;10248142;28;20446;-69
2022/04/04 15:32:11;;;;;;;2.38;1.70;;;;;;;;;;10262532;28;20030;-68
2022/04/04 15:37:16;;;;;;;4.63;2.00;;;;;;;;;;10268114;28;20438;-70
2022/04/04 15:42:17;;;;;;;4.28;1.63;;;;;;;;;;10254962;28;20397;-69
2022/04/04 15:47:17;;;;;;;3.03;1.83;;;;;;;;;;10253770;28;20027;-70
2022/04/04 15:52:18;;;;;;;4.38;1.77;;;;;;;;;;10247989;28;20027;-70
2022/04/04 15:57:18;;;;;;;2.35;2.13;;;;;;;;;;10266770;28;20046;-69
2022/04/04 16:02:19;;;;;;;3.63;1.92;;;;;;;;;;10303543;28;20042;-69
2022/04/04 16:07:19;;;;;;;2.35;1.90;;;;;;;;;;10254500;28;20027;-69
2022/04/04 16:12:20;;;;;;;3.22;1.83;;;;;;;;;;10287163;28;20067;-69
2022/04/04 16:17:21;;;;;;;3.83;1.48;;;;;;;;;;10263272;28;20031;-69
2022/04/04 16:22:21;;;;;;;3.15;1.90;;;;;;;;;;10245437;28;20042;-70
2022/04/04 16:27:22;;;;;;;4.35;1.60;;;;;;;;;;10278992;28;20125;-69
2022/04/04 16:32:23;;;;;;;2.28;1.75;;;;;;;;;;10280699;28;20034;-66
2022/04/04 16:37:23;;;;;;;3.83;1.98;;;;;;;;;;10286177;28;20026;-64
2022/04/04 16:42:27;;;;;;;2.72;2.05;;;;;;;;;;10252750;28;20035;-64
2022/04/04 16:47:28;;;;;;;7.55;1.85;;;;;;;;;;10267374;28;20066;-64
2022/04/04 16:52:29;;;;;;;3.83;1.58;;;;;;;;;;10269658;28;20035;-65
2022/04/04 16:57:29;;;;;;;3.15;1.63;;;;;;;;;;10275426;28;20050;-61
2022/04/04 17:02:30;;;;;;;5.97;1.70;;;;;;;;;;10293457;28;20066;-61
2022/04/04 17:07:32;;;;;;;2.22;1.73;;;;;;;;;;10298788;28;20035;-61
2022/04/04 17:12:32;;;;;;;3.63;1.73;;;;;;;;;;10310166;28;20027;-61
2022/04/04 17:17:34;;;;;;;5.53;1.90;;;;;;;;;;10293169;28;20029;-61
2022/04/04 17:22:34;;;;;;;2.85;1.58;;;;;;;;;;10269927;28;20121;-61
2022/04/04 17:27:35;;;;;;;4.78;1.60;;;;;;;;;;10313134;28;20034;-61
2022/04/04 17:32:36;;;;;;;4.82;1.88;;;;;;;;;;10320728;28;20027;-61
2022/04/04 17:37:37;;;;;;;2.35;1.70;;;;;;;;;;10311225;28;20070;-61
2022/04/04 17:42:38;;;;;;;5.35;2.00;;;;;;;;;;10314489;28;20062;-63
2022/04/04 17:47:43;;;;;;;3.15;1.50;;;;;;;;;;10291546;28;20462;-62
2022/04/04 17:52:44;;;;;;;2.72;2.08;;;;;;;;;;10311133;28;20042;-63
2022/04/04 17:57:44;;;;;;;3.60;1.73;;;;;;;;;;10312231;28;20043;-63
2022/04/04 18:02:45;;;;;;;2.10;1.63;;;;;;;;;;10299794;28;20031;-63
2022/04/04 18:07:46;;;;;;;2.72;1.70;;;;;;;;;;10314367;28;20014;-63
2022/04/04 18:12:46;;;;;;;3.28;2.13;;;;;;;;;;10289682;28;20126;-63
2022/04/04 18:17:47;;;;;;;4.45;2.55;;;;;;;;;;10303906;28;20031;-63
2022/04/04 18:22:50;;;;;;;8.20;2.53;;;;;;;;;;10289965;28;20482;-63
2022/04/04 18:27:51;;;;;;;3.78;2.40;;;;;;;;;;10291097;28;20711;-63
2022/04/04 18:32:51;;;;;;;8.65;2.45;;;;;;;;;;10290685;28;20022;-63
2022/04/04 18:37:52;;;;;;;3.80;2.60;;;;;;;;;;10267291;28;20034;-63
2022/04/04 18:42:52;;;;;;;3.60;2.30;;;;;;;;;;10279646;28;20039;-63
2022/04/04 18:47:53;;;;;;;3.20;2.33;;;;;;;;;;10290525;28;20394;-63
2022/04/04 18:52:54;;;;;;;5.18;2.47;;;;;;;;;;10291744;28;20042;-63
2022/04/04 18:57:55;;;;;;;4.38;2.70;;;;;;;;;;10289900;28;20043;-63
2022/04/04 19:02:55;;;;;;;3.25;2.30;;;;;;;;;;10289705;28;20031;-63
2022/04/04 19:08:01;;;;;;;3.72;2.72;;;;;;;;;;10294475;28;20037;-62
2022/04/04 19:13:02;;;;;;;5.47;3.00;;;;;;;;;;10305755;28;20122;-63
2022/04/04 19:18:02;;;;;;;3.67;2.80;;;;;;;;;;10315759;28;20043;-62
2022/04/04 19:23:08;;;;;;;8.32;2.92;;;;;;;;;;10301219;28;20046;-62
2022/04/04 19:28:10;;;;;;;5.10;2.95;;;;;;;;;;10288012;28;20030;-62
2022/04/04 19:33:10;;;;;;;8.23;2.90;;;;;;;;;;10287594;28;20069;-63
2022/04/04 19:38:12;;;;;;;6.85;3.17;;;;;;;;;;10290123;28;20139;-62
2022/04/04 19:43:13;;;;;;;6.22;2.80;;;;;;;;;;10297794;28;20049;-62
2022/04/04 19:48:14;;;;;;;6.45;3.30;;;;;;;;;;10289815;28;20394;-62
2022/04/04 19:53:15;;;;;;;4.95;2.67;;;;;;;;;;10288710;28;20030;-63
2022/04/04 19:58:17;;;;;;;5.70;3.15;;;;;;;;;;10317075;28;20057;-63
2022/04/04 20:03:18;;;;;;;6.57;2.75;;;;;;;;;;10328365;28;20033;-63
2022/04/04 20:08:19;;;;;;;5.80;2.83;;;;;;;;;;10340760;28;20420;-63
2022/04/04 20:13:19;;;;;;;5.65;2.95;;;;;;;;;;10317850;28;20033;-63
2022/04/04 20:18:20;;;;;;;5.65;2.83;;;;;;;;;;10311917;28;20042;-62
2022/04/04 20:23:22;;;;;;;7.78;3.08;;;;;;;;;;10290397;28;20074;-63
2022/04/04 20:28:23;;;;;;;4.65;3.22;;;;;;;;;;10292629;28;20532;-63
2022/04/04 20:33:23;;;;;;;4.70;2.70;;;;;;;;;;10287537;28;20406;-63
2022/04/04 20:38:24;;;;;;;5.72;3.22;;;;;;;;;;10288953;28;20452;-63
2022/04/04 20:43:29;;;;;;;4.47;2.78;;;;;;;;;;10334615;28;20212;-63
2022/04/04 20:48:29;;;;;;;4.45;3.10;;;;;;;;;;10343559;28;20030;-63
2022/04/04 20:53:30;;;;;;;5.82;2.90;;;;;;;;;;10319057;28;20065;-63
2022/04/04 20:58:31;;;;;;;7.13;3.30;;;;;;;;;;10324472;28;20058;-63
2022/04/04 21:03:32;;;;;;;8.50;2.88;;;;;;;;;;10323115;28;20031;-63
2022/04/04 21:08:33;;;;;;;4.70;2.65;;;;;;;;;;10319388;28;20031;-63
2022/04/04 21:13:33;;;;;;;5.75;3.05;;;;;;;;;;10329861;28;20034;-63
2022/04/04 21:18:34;;;;;;;6.07;2.67;;;;;;;;;;10321108;28;20077;-61
2022/04/04 21:23:35;;;;;;;12.30;2.67;;;;;;;;;;10331429;28;20031;-62
2022/04/04 21:28:37;;;;;;;5.20;2.67;;;;;;;;;;10337364;28;20038;-61
2022/04/04 21:33:38;;;;;;;4.35;2.47;;;;;;;;;;10334899;28;20547;-62
2022/04/04 21:38:39;;;;;;;12.55;2.75;;;;;;;;;;10324286;28;20182;-62
2022/04/04 21:43:39;;;;;;;6.65;2.50;;;;;;;;;;10304118;28;20098;-61
2022/04/04 21:48:40;;;;;;;7.85;2.70;;;;;;;;;;10310975;28;20038;-61
2022/04/04 21:53:41;;;;;;;7.05;3.13;;;;;;;;;;10323788;28;20413;-61
2022/04/04 21:58:41;;;;;;;7.13;2.60;;;;;;;;;;10331100;28;20046;-61
2022/04/04 22:03:42;;;;;;;5.47;2.60;;;;;;;;;;10332012;28;20034;-61
2022/04/04 22:08:43;;;;;;;6.72;2.90;;;;;;;;;;10332030;28;20393;-61
2022/04/04 22:13:44;;;;;;;4.80;2.78;;;;;;;;;;10332083;28;20038;-61
2022/04/04 22:18:44;;;;;;;6.72;2.85;;;;;;;;;;10331309;28;20026;-61
2022/04/04 22:23:45;;;;;;;8.20;2.78;;;;;;;;;;10330816;28;20038;-61
2022/04/04 22:28:46;;;;;;;5.43;2.80;;;;;;;;;;10331200;28;20498;-61
2022/04/04 22:33:46;;;;;;;5.80;3.08;;;;;;;;;;10330876;28;20481;-62
2022/04/04 22:38:47;;;;;;;7.05;2.88;;;;;;;;;;10330963;28;20028;-62
2022/04/04 22:43:47;;;;;;;7.70;2.40;;;;;;;;;;10330216;28;20019;-62
2022/04/04 22:48:48;;;;;;;8.65;2.65;;;;;;;;;;10331034;28;20034;-62
2022/04/04 22:53:48;;;;;;;6.30;2.67;;;;;;;;;;10329926;28;20049;-62
2022/04/04 22:58:49;;;;;;;4.80;2.88;;;;;;;;;;10330004;28;20060;-61
2022/04/04 23:03:50;;;;;;;5.03;2.65;;;;;;;;;;10330260;28;20030;-61
2022/04/04 23:08:51;;;;;;;3.08;2.20;;;;;;;;;;10329572;28;20113;-61
2022/04/04 23:13:51;;;;;;;4.30;2.40;;;;;;;;;;10329404;28;20109;-61
2022/04/04 23:18:52;;;;;;;2.60;2.40;;;;;;;;;;10329647;28;20092;-61
2022/04/04 23:23:52;;;;;;;8.73;2.80;;;;;;;;;;10328704;28;20429;-61
2022/04/04 23:28:53;;;;;;;7.88;2.60;;;;;;;;;;10329270;28;20413;-61
2022/04/04 23:33:53;;;;;;;5.15;2.55;;;;;;;;;;10329191;28;20037;-61
2022/04/04 23:38:54;;;;;;;3.95;2.47;;;;;;;;;;10327203;28;20023;-65
2022/04/04 23:43:55;;;;;;;8.32;3.08;;;;;;;;;;10328283;28;20294;-62
2022/04/04 23:48:55;;;;;;;7.22;3.30;;;;;;;;;;10328309;28;20468;-61
2022/04/04 23:53:56;;;;;;;8.40;3.53;;;;;;;;;;10328486;28;20041;-61
2022/04/04 23:58:56;;;;;;;4.47;3.28;;;;;;;;;;10327149;28;20035;-61
